sensor_id;sensor_type;location;lat;lon;timestamp;temperature;humidity
46378;DHT22;32083;47.360;9.650;2022-09-17T00:01:00;11.90;99.90
46378;DHT22;32083;47.360;9.650;2022-09-17T00:03:27;12.00;99.90
46378;DHT22;32083;47.360;9.650;2022-09-17T00:06:07;12.00;99.90
46378;DHT22;32083;47.360;9.650;2022-09-17T00:08:34;12.00;99.90
46378;DHT22;32083;47.360;9.650;2022-09-17T00:11:12;11.90;99.90
46378;DHT22;32083;47.360;9.650;2022-09-17T00:13:40;11.90;99.90
46378;DHT22;32083;47.360;9.650;2022-09-17T00:16:08;11.90;99.90
46378;DHT22;32083;47.360;9.650;2022-09-17T00:18:34;11.90;99.90
46378;DHT22;32083;47.360;9.650;2022-09-17T00:21:02;11.90;99.90
46378;DHT22;32083;47.360;9.650;2022-09-17T00:23:36;11.90;99.90
46378;DHT22;32083;47.360;9.650;2022-09-17T00:26:04;11.80;99.90
46378;DHT22;32083;47.360;9.650;2022-09-17T00:28:32;11.80;99.90
46378;DHT22;32083;47.360;9.650;2022-09-17T00:31:07;11.80;99.90
46378;DHT22;32083;47.360;9.650;2022-09-17T00:33:36;11.80;99.90
46378;DHT22;32083;47.360;9.650;2022-09-17T00:36:05;11.70;99.90
46378;DHT22;32083;47.360;9.650;2022-09-17T00:38:50;11.70;99.90
46378;DHT22;32083;47.360;9.650;2022-09-17T00:41:18;11.70;99.90
46378;DHT22;32083;47.360;9.650;2022-09-17T00:43:52;11.70;99.90
46378;DHT22;32083;47.360;9.650;2022-09-17T00:46:37;11.70;99.90
46378;DHT22;32083;47.360;9.650;2022-09-17T00:49:11;11.70;99.90
46378;DHT22;32083;47.360;9.650;2022-09-17T00:51:45;11.70;99.90
46378;DHT22;32083;47.360;9.650;2022-09-17T00:54:14;11.60;99.90
46378;DHT22;32083;47.360;9.650;2022-09-17T00:56:44;11.60;99.90
46378;DHT22;32083;47.360;9.650;2022-09-17T00:59:26;11.60;99.90
46378;DHT22;32083;47.360;9.650;2022-09-17T01:01:54;11.60;99.90
46378;DHT22;32083;47.360;9.650;2022-09-17T01:04:33;11.50;99.90
46378;DHT22;32083;47.360;9.650;2022-09-17T01:33:12;11.50;99.70
46378;DHT22;32083;47.360;9.650;2022-09-17T01:38:48;11.40;99.90
46378;DHT22;32083;47.360;9.650;2022-09-17T01:41:42;11.40;99.90
46378;DHT22;32083;47.360;9.650;2022-09-17T01:49:46;11.30;99.90
46378;DHT22;32083;47.360;9.650;2022-09-17T01:52:15;11.20;99.90
46378;DHT22;32083;47.360;9.650;2022-09-17T01:54:45;11.10;99.90
46378;DHT22;32083;47.360;9.650;2022-09-17T01:57:37;11.10;99.90
46378;DHT22;32083;47.360;9.650;2022-09-17T02:00:10;11.20;99.90
46378;DHT22;32083;47.360;9.650;2022-09-17T02:03:20;11.20;99.90
46378;DHT22;32083;47.360;9.650;2022-09-17T02:06:10;11.10;99.90
46378;DHT22;32083;47.360;9.650;2022-09-17T02:13:59;11.20;99.90
46378;DHT22;32083;47.360;9.650;2022-09-17T02:16:29;11.10;99.90
46378;DHT22;32083;47.360;9.650;2022-09-17T02:19:24;11.10;99.90
46378;DHT22;32083;47.360;9.650;2022-09-17T02:24:51;11.00;99.90
46378;DHT22;32083;47.360;9.650;2022-09-17T02:30:32;10.90;99.90
46378;DHT22;32083;47.360;9.650;2022-09-17T02:33:16;11.00;99.90
46378;DHT22;32083;47.360;9.650;2022-09-17T02:35:43;11.00;99.90
46378;DHT22;32083;47.360;9.650;2022-09-17T02:38:12;10.90;99.90
46378;DHT22;32083;47.360;9.650;2022-09-17T02:40:47;10.90;99.90
46378;DHT22;32083;47.360;9.650;2022-09-17T02:43:34;10.80;99.90
46378;DHT22;32083;47.360;9.650;2022-09-17T02:46:30;10.70;99.90
46378;DHT22;32083;47.360;9.650;2022-09-17T02:52:33;10.70;99.90
46378;DHT22;32083;47.360;9.650;2022-09-17T02:58:02;10.60;99.90
46378;DHT22;32083;47.360;9.650;2022-09-17T03:00:48;10.60;99.90
46378;DHT22;32083;47.360;9.650;2022-09-17T03:03:33;10.50;99.90
46378;DHT22;32083;47.360;9.650;2022-09-17T03:06:04;10.60;99.90
46378;DHT22;32083;47.360;9.650;2022-09-17T03:08:40;10.60;99.90
46378;DHT22;32083;47.360;9.650;2022-09-17T03:11:12;10.60;99.90
46378;DHT22;32083;47.360;9.650;2022-09-17T03:13:40;10.60;99.90
46378;DHT22;32083;47.360;9.650;2022-09-17T03:16:07;10.60;99.90
46378;DHT22;32083;47.360;9.650;2022-09-17T03:18:35;10.60;99.90
46378;DHT22;32083;47.360;9.650;2022-09-17T03:21:07;10.60;99.80
46378;DHT22;32083;47.360;9.650;2022-09-17T03:23:34;10.60;99.90
46378;DHT22;32083;47.360;9.650;2022-09-17T03:26:05;10.60;99.80
46378;DHT22;32083;47.360;9.650;2022-09-17T03:28:33;10.60;99.90
46378;DHT22;32083;47.360;9.650;2022-09-17T03:30:59;10.60;99.90
46378;DHT22;32083;47.360;9.650;2022-09-17T03:33:34;10.60;99.90
46378;DHT22;32083;47.360;9.650;2022-09-17T03:36:08;10.60;99.90
46378;DHT22;32083;47.360;9.650;2022-09-17T03:38:34;10.50;99.90
46378;DHT22;32083;47.360;9.650;2022-09-17T03:41:04;10.50;99.90
46378;DHT22;32083;47.360;9.650;2022-09-17T03:43:56;10.50;99.90
46378;DHT22;32083;47.360;9.650;2022-09-17T03:46:23;10.40;99.90
46378;DHT22;32083;47.360;9.650;2022-09-17T03:54:58;10.50;99.90
46378;DHT22;32083;47.360;9.650;2022-09-17T03:57:24;10.50;99.90
46378;DHT22;32083;47.360;9.650;2022-09-17T03:59:50;10.60;99.90
46378;DHT22;32083;47.360;9.650;2022-09-17T04:02:16;10.60;99.90
46378;DHT22;32083;47.360;9.650;2022-09-17T04:04:42;10.60;99.90
46378;DHT22;32083;47.360;9.650;2022-09-17T04:07:08;10.60;99.90
46378;DHT22;32083;47.360;9.650;2022-09-17T04:09:34;10.60;99.90
46378;DHT22;32083;47.360;9.650;2022-09-17T04:12:00;10.60;99.90
46378;DHT22;32083;47.360;9.650;2022-09-17T04:14:26;10.60;99.90
46378;DHT22;32083;47.360;9.650;2022-09-17T04:16:53;10.70;99.90
46378;DHT22;32083;47.360;9.650;2022-09-17T04:19:19;10.70;99.90
46378;DHT22;32083;47.360;9.650;2022-09-17T04:21:45;10.70;99.90
46378;DHT22;32083;47.360;9.650;2022-09-17T04:24:19;10.70;99.90
46378;DHT22;32083;47.360;9.650;2022-09-17T04:26:45;10.70;99.90
46378;DHT22;32083;47.360;9.650;2022-09-17T04:29:13;10.60;99.90
46378;DHT22;32083;47.360;9.650;2022-09-17T04:31:40;10.60;99.90
46378;DHT22;32083;47.360;9.650;2022-09-17T04:34:07;10.60;99.90
46378;DHT22;32083;47.360;9.650;2022-09-17T04:36:32;10.60;99.90
46378;DHT22;32083;47.360;9.650;2022-09-17T04:38:58;10.60;99.90
46378;DHT22;32083;47.360;9.650;2022-09-17T04:41:24;10.70;99.90
46378;DHT22;32083;47.360;9.650;2022-09-17T04:43:50;10.60;99.90
46378;DHT22;32083;47.360;9.650;2022-09-17T04:46:17;10.70;99.90
46378;DHT22;32083;47.360;9.650;2022-09-17T04:51:18;10.70;99.90
46378;DHT22;32083;47.360;9.650;2022-09-17T04:53:44;10.70;99.90
46378;DHT22;32083;47.360;9.650;2022-09-17T04:56:30;10.70;99.90
46378;DHT22;32083;47.360;9.650;2022-09-17T05:01:33;10.70;99.90
46378;DHT22;32083;47.360;9.650;2022-09-17T05:03:58;10.60;99.90
46378;DHT22;32083;47.360;9.650;2022-09-17T05:06:24;10.60;99.90
46378;DHT22;32083;47.360;9.650;2022-09-17T05:08:50;10.50;99.90
46378;DHT22;32083;47.360;9.650;2022-09-17T05:11:16;10.50;99.90
46378;DHT22;32083;47.360;9.650;2022-09-17T05:13:42;10.40;99.90
46378;DHT22;32083;47.360;9.650;2022-09-17T05:16:08;10.30;99.90
46378;DHT22;32083;47.360;9.650;2022-09-17T05:18:35;10.30;99.90
46378;DHT22;32083;47.360;9.650;2022-09-17T05:21:01;10.20;99.90
46378;DHT22;32083;47.360;9.650;2022-09-17T05:23:27;10.20;99.90
46378;DHT22;32083;47.360;9.650;2022-09-17T05:25:57;10.20;99.90
46378;DHT22;32083;47.360;9.650;2022-09-17T05:28:24;10.30;99.50
46378;DHT22;32083;47.360;9.650;2022-09-17T05:30:50;10.40;99.80
46378;DHT22;32083;47.360;9.650;2022-09-17T05:33:16;10.40;99.90
46378;DHT22;32083;47.360;9.650;2022-09-17T05:35:44;10.30;99.70
46378;DHT22;32083;47.360;9.650;2022-09-17T05:38:10;10.40;99.90
46378;DHT22;32083;47.360;9.650;2022-09-17T05:40:36;10.40;99.90
46378;DHT22;32083;47.360;9.650;2022-09-17T05:43:05;10.50;99.90
46378;DHT22;32083;47.360;9.650;2022-09-17T05:45:35;10.50;99.90
46378;DHT22;32083;47.360;9.650;2022-09-17T05:48:04;10.50;99.90
46378;DHT22;32083;47.360;9.650;2022-09-17T05:50:31;10.50;99.90
46378;DHT22;32083;47.360;9.650;2022-09-17T05:53:03;10.60;99.90
46378;DHT22;32083;47.360;9.650;2022-09-17T05:55:29;10.60;99.90
46378;DHT22;32083;47.360;9.650;2022-09-17T05:57:56;10.60;99.90
46378;DHT22;32083;47.360;9.650;2022-09-17T06:00:22;10.60;99.90
46378;DHT22;32083;47.360;9.650;2022-09-17T06:02:54;10.60;99.90
46378;DHT22;32083;47.360;9.650;2022-09-17T06:05:20;10.70;99.90
46378;DHT22;32083;47.360;9.650;2022-09-17T06:07:46;10.60;99.90
46378;DHT22;32083;47.360;9.650;2022-09-17T06:10:12;10.70;99.90
46378;DHT22;32083;47.360;9.650;2022-09-17T06:12:38;10.60;99.90
46378;DHT22;32083;47.360;9.650;2022-09-17T06:15:04;10.70;99.90
46378;DHT22;32083;47.360;9.650;2022-09-17T06:17:35;10.70;99.90
46378;DHT22;32083;47.360;9.650;2022-09-17T06:20:02;10.80;99.90
46378;DHT22;32083;47.360;9.650;2022-09-17T06:22:29;10.70;99.90
46378;DHT22;32083;47.360;9.650;2022-09-17T06:24:55;10.70;99.90
46378;DHT22;32083;47.360;9.650;2022-09-17T06:27:21;10.80;99.90
46378;DHT22;32083;47.360;9.650;2022-09-17T06:29:47;10.80;99.90
46378;DHT22;32083;47.360;9.650;2022-09-17T06:32:13;10.80;99.80
46378;DHT22;32083;47.360;9.650;2022-09-17T06:34:41;10.80;99.90
46378;DHT22;32083;47.360;9.650;2022-09-17T06:37:08;10.80;99.90
46378;DHT22;32083;47.360;9.650;2022-09-17T06:39:34;10.90;99.60
46378;DHT22;32083;47.360;9.650;2022-09-17T06:42:00;10.90;99.90
46378;DHT22;32083;47.360;9.650;2022-09-17T06:44:26;11.00;99.90
46378;DHT22;32083;47.360;9.650;2022-09-17T06:46:52;11.00;99.90
46378;DHT22;32083;47.360;9.650;2022-09-17T06:49:18;11.00;99.80
46378;DHT22;32083;47.360;9.650;2022-09-17T06:51:44;11.00;99.90
46378;DHT22;32083;47.360;9.650;2022-09-17T06:54:10;11.10;99.90
46378;DHT22;32083;47.360;9.650;2022-09-17T06:56:37;11.10;99.10
46378;DHT22;32083;47.360;9.650;2022-09-17T06:59:03;11.10;99.70
46378;DHT22;32083;47.360;9.650;2022-09-17T07:01:29;11.20;98.70
46378;DHT22;32083;47.360;9.650;2022-09-17T07:03:55;11.20;99.60
46378;DHT22;32083;47.360;9.650;2022-09-17T07:06:21;11.20;99.90
46378;DHT22;32083;47.360;9.650;2022-09-17T07:08:47;11.30;99.90
46378;DHT22;32083;47.360;9.650;2022-09-17T07:11:13;11.30;99.90
46378;DHT22;32083;47.360;9.650;2022-09-17T07:13:40;11.40;99.40
46378;DHT22;32083;47.360;9.650;2022-09-17T07:16:08;11.40;99.90
46378;DHT22;32083;47.360;9.650;2022-09-17T07:18:34;11.50;99.30
46378;DHT22;32083;47.360;9.650;2022-09-17T07:21:03;11.50;99.00
46378;DHT22;32083;47.360;9.650;2022-09-17T07:23:31;11.60;99.70
46378;DHT22;32083;47.360;9.650;2022-09-17T07:26:00;11.70;99.70
46378;DHT22;32083;47.360;9.650;2022-09-17T07:28:27;11.80;99.40
46378;DHT22;32083;47.360;9.650;2022-09-17T07:30:53;11.80;99.30
46378;DHT22;32083;47.360;9.650;2022-09-17T07:33:22;11.90;98.20
46378;DHT22;32083;47.360;9.650;2022-09-17T07:36:03;11.80;96.50
46378;DHT22;32083;47.360;9.650;2022-09-17T07:38:30;11.60;96.30
46378;DHT22;32083;47.360;9.650;2022-09-17T07:40:56;11.60;97.80
46378;DHT22;32083;47.360;9.650;2022-09-17T07:43:24;11.60;96.90
46378;DHT22;32083;47.360;9.650;2022-09-17T07:45:51;11.50;96.10
46378;DHT22;32083;47.360;9.650;2022-09-17T07:48:19;11.50;97.40
46378;DHT22;32083;47.360;9.650;2022-09-17T07:50:45;11.60;97.00
46378;DHT22;32083;47.360;9.650;2022-09-17T07:53:11;11.60;96.10
46378;DHT22;32083;47.360;9.650;2022-09-17T07:55:37;11.60;96.90
46378;DHT22;32083;47.360;9.650;2022-09-17T07:58:03;11.60;95.30
46378;DHT22;32083;47.360;9.650;2022-09-17T08:00:29;11.50;96.50
46378;DHT22;32083;47.360;9.650;2022-09-17T08:02:56;11.50;97.20
46378;DHT22;32083;47.360;9.650;2022-09-17T08:05:23;11.60;97.60
46378;DHT22;32083;47.360;9.650;2022-09-17T08:07:54;11.60;96.90
46378;DHT22;32083;47.360;9.650;2022-09-17T08:10:22;11.60;96.00
46378;DHT22;32083;47.360;9.650;2022-09-17T08:12:48;11.70;96.90
46378;DHT22;32083;47.360;9.650;2022-09-17T08:15:15;11.70;97.00
46378;DHT22;32083;47.360;9.650;2022-09-17T08:17:43;11.70;96.50
46378;DHT22;32083;47.360;9.650;2022-09-17T08:20:09;11.60;95.20
46378;DHT22;32083;47.360;9.650;2022-09-17T08:22:36;11.60;96.70
46378;DHT22;32083;47.360;9.650;2022-09-17T08:25:03;11.60;96.70
46378;DHT22;32083;47.360;9.650;2022-09-17T08:27:30;11.70;97.10
46378;DHT22;32083;47.360;9.650;2022-09-17T08:29:56;11.70;97.20
46378;DHT22;32083;47.360;9.650;2022-09-17T08:32:22;11.80;97.40
46378;DHT22;32083;47.360;9.650;2022-09-17T08:34:48;11.90;97.70
46378;DHT22;32083;47.360;9.650;2022-09-17T08:37:16;11.90;96.30
46378;DHT22;32083;47.360;9.650;2022-09-17T08:39:42;12.00;96.70
46378;DHT22;32083;47.360;9.650;2022-09-17T08:44:45;12.10;96.80
46378;DHT22;32083;47.360;9.650;2022-09-17T08:49:57;12.20;95.70
46378;DHT22;32083;47.360;9.650;2022-09-17T08:52:37;12.30;95.30
46378;DHT22;32083;47.360;9.650;2022-09-17T08:58:32;12.50;96.80
46378;DHT22;32083;47.360;9.650;2022-09-17T09:01:14;12.60;93.60
46378;DHT22;32083;47.360;9.650;2022-09-17T09:04:17;12.60;93.70
46378;DHT22;32083;47.360;9.650;2022-09-17T09:07:23;12.60;93.40
46378;DHT22;32083;47.360;9.650;2022-09-17T09:10:24;12.70;94.80
46378;DHT22;32083;47.360;9.650;2022-09-17T09:12:52;12.60;92.50
46378;DHT22;32083;47.360;9.650;2022-09-17T09:15:32;12.60;91.20
46378;DHT22;32083;47.360;9.650;2022-09-17T09:18:09;12.70;94.30
46378;DHT22;32083;47.360;9.650;2022-09-17T09:23:56;12.80;93.60
46378;DHT22;32083;47.360;9.650;2022-09-17T09:34:45;12.80;92.00
46378;DHT22;32083;47.360;9.650;2022-09-17T09:37:26;13.00;94.30
46378;DHT22;32083;47.360;9.650;2022-09-17T09:40:45;13.20;92.60
46378;DHT22;32083;47.360;9.650;2022-09-17T09:42:45;13.20;92.40
46378;DHT22;32083;47.360;9.650;2022-09-17T09:45:15;13.30;92.20
46378;DHT22;32083;47.360;9.650;2022-09-17T09:47:45;13.20;91.40
46378;DHT22;32083;47.360;9.650;2022-09-17T09:53:11;13.10;93.70
46378;DHT22;32083;47.360;9.650;2022-09-17T09:58:39;12.90;94.30
46378;DHT22;32083;47.360;9.650;2022-09-17T10:03:40;12.80;94.40
46378;DHT22;32083;47.360;9.650;2022-09-17T10:06:08;12.80;94.90
46378;DHT22;32083;47.360;9.650;2022-09-17T10:08:37;12.80;95.70
46378;DHT22;32083;47.360;9.650;2022-09-17T10:13:38;12.90;96.60
46378;DHT22;32083;47.360;9.650;2022-09-17T10:16:23;12.90;96.00
46378;DHT22;32083;47.360;9.650;2022-09-17T10:19:17;13.00;95.80
46378;DHT22;32083;47.360;9.650;2022-09-17T10:21:44;13.10;95.80
46378;DHT22;32083;47.360;9.650;2022-09-17T10:24:23;13.20;95.90
46378;DHT22;32083;47.360;9.650;2022-09-17T10:26:51;13.20;96.00
46378;DHT22;32083;47.360;9.650;2022-09-17T10:29:20;13.10;94.90
46378;DHT22;32083;47.360;9.650;2022-09-17T10:31:54;12.80;94.90
46378;DHT22;32083;47.360;9.650;2022-09-17T10:34:25;12.60;95.60
46378;DHT22;32083;47.360;9.650;2022-09-17T10:36:53;12.50;95.90
46378;DHT22;32083;47.360;9.650;2022-09-17T10:39:30;12.40;96.10
46378;DHT22;32083;47.360;9.650;2022-09-17T10:44:56;12.50;96.40
46378;DHT22;32083;47.360;9.650;2022-09-17T10:47:25;12.70;95.90
46378;DHT22;32083;47.360;9.650;2022-09-17T10:49:59;12.80;97.50
46378;DHT22;32083;47.360;9.650;2022-09-17T11:00:17;13.50;94.30
46378;DHT22;32083;47.360;9.650;2022-09-17T11:11:10;13.20;93.50
46378;DHT22;32083;47.360;9.650;2022-09-17T11:31:13;13.40;93.60
46378;DHT22;32083;47.360;9.650;2022-09-17T11:33:54;13.50;93.90
46378;DHT22;32083;47.360;9.650;2022-09-17T11:36:30;13.60;93.50
46378;DHT22;32083;47.360;9.650;2022-09-17T11:39:18;13.60;92.40
46378;DHT22;32083;47.360;9.650;2022-09-17T11:41:48;13.50;92.00
46378;DHT22;32083;47.360;9.650;2022-09-17T11:44:34;13.50;92.90
46378;DHT22;32083;47.360;9.650;2022-09-17T11:47:18;13.50;93.20
46378;DHT22;32083;47.360;9.650;2022-09-17T11:49:55;13.50;92.20
46378;DHT22;32083;47.360;9.650;2022-09-17T11:52:44;13.60;93.30
46378;DHT22;32083;47.360;9.650;2022-09-17T11:57:46;13.50;92.90
46378;DHT22;32083;47.360;9.650;2022-09-17T12:00:14;13.40;93.10
46378;DHT22;32083;47.360;9.650;2022-09-17T12:02:55;13.40;93.60
46378;DHT22;32083;47.360;9.650;2022-09-17T12:05:33;13.30;93.70
46378;DHT22;32083;47.360;9.650;2022-09-17T12:08:17;13.20;94.20
46378;DHT22;32083;47.360;9.650;2022-09-17T12:13:25;12.90;94.30
46378;DHT22;32083;47.360;9.650;2022-09-17T12:21:18;12.10;93.90
46378;DHT22;32083;47.360;9.650;2022-09-17T12:24:00;12.00;95.10
46378;DHT22;32083;47.360;9.650;2022-09-17T12:32:13;11.90;95.60
46378;DHT22;32083;47.360;9.650;2022-09-17T12:51:09;11.10;97.10
46378;DHT22;32083;47.360;9.650;2022-09-17T12:53:42;11.20;97.10
46378;DHT22;32083;47.360;9.650;2022-09-17T12:59:17;11.20;97.00
46378;DHT22;32083;47.360;9.650;2022-09-17T13:01:59;11.20;96.90
46378;DHT22;32083;47.360;9.650;2022-09-17T13:07:20;11.10;97.80
46378;DHT22;32083;47.360;9.650;2022-09-17T13:10:04;10.80;98.40
46378;DHT22;32083;47.360;9.650;2022-09-17T13:18:31;10.70;99.00
46378;DHT22;32083;47.360;9.650;2022-09-17T13:23:42;11.10;98.90
46378;DHT22;32083;47.360;9.650;2022-09-17T13:26:10;11.20;98.20
46378;DHT22;32083;47.360;9.650;2022-09-17T13:28:47;11.30;99.70
46378;DHT22;32083;47.360;9.650;2022-09-17T13:31:45;11.40;98.90
46378;DHT22;32083;47.360;9.650;2022-09-17T13:36:53;11.60;98.60
46378;DHT22;32083;47.360;9.650;2022-09-17T13:42:30;11.90;95.50
46378;DHT22;32083;47.360;9.650;2022-09-17T13:45:03;12.10;96.00
46378;DHT22;32083;47.360;9.650;2022-09-17T13:47:37;12.00;94.70
46378;DHT22;32083;47.360;9.650;2022-09-17T13:50:06;12.00;93.90
46378;DHT22;32083;47.360;9.650;2022-09-17T13:55:03;12.00;94.10
46378;DHT22;32083;47.360;9.650;2022-09-17T13:57:31;12.00;96.10
46378;DHT22;32083;47.360;9.650;2022-09-17T14:00:00;12.00;96.00
46378;DHT22;32083;47.360;9.650;2022-09-17T14:02:35;12.00;97.20
46378;DHT22;32083;47.360;9.650;2022-09-17T14:05:30;12.00;96.80
46378;DHT22;32083;47.360;9.650;2022-09-17T14:08:24;11.70;97.70
46378;DHT22;32083;47.360;9.650;2022-09-17T14:10:53;11.50;95.30
46378;DHT22;32083;47.360;9.650;2022-09-17T14:13:39;11.30;96.90
46378;DHT22;32083;47.360;9.650;2022-09-17T14:22:01;11.20;98.00
46378;DHT22;32083;47.360;9.650;2022-09-17T14:24:35;11.20;98.90
46378;DHT22;32083;47.360;9.650;2022-09-17T14:30:04;11.20;98.10
46378;DHT22;32083;47.360;9.650;2022-09-17T14:41:06;10.90;98.80
46378;DHT22;32083;47.360;9.650;2022-09-17T14:46:26;11.10;99.30
46378;DHT22;32083;47.360;9.650;2022-09-17T14:48:54;11.20;98.60
46378;DHT22;32083;47.360;9.650;2022-09-17T14:51:24;11.20;98.20
46378;DHT22;32083;47.360;9.650;2022-09-17T14:54:19;11.30;97.60
46378;DHT22;32083;47.360;9.650;2022-09-17T14:56:50;11.30;97.50
46378;DHT22;32083;47.360;9.650;2022-09-17T15:01:54;11.20;96.70
46378;DHT22;32083;47.360;9.650;2022-09-17T15:04:23;11.30;97.30
46378;DHT22;32083;47.360;9.650;2022-09-17T15:06:50;11.30;96.80
46378;DHT22;32083;47.360;9.650;2022-09-17T15:09:25;11.40;97.20
46378;DHT22;32083;47.360;9.650;2022-09-17T15:11:54;11.50;97.80
46378;DHT22;32083;47.360;9.650;2022-09-17T15:14:27;11.60;97.80
46378;DHT22;32083;47.360;9.650;2022-09-17T15:16:55;11.70;97.00
46378;DHT22;32083;47.360;9.650;2022-09-17T15:19:50;11.80;97.70
46378;DHT22;32083;47.360;9.650;2022-09-17T15:22:32;12.00;98.60
46378;DHT22;32083;47.360;9.650;2022-09-17T15:25:00;12.00;98.20
46378;DHT22;32083;47.360;9.650;2022-09-17T15:27:35;12.10;97.30
46378;DHT22;32083;47.360;9.650;2022-09-17T15:30:10;12.30;98.10
46378;DHT22;32083;47.360;9.650;2022-09-17T15:32:55;12.40;97.90
46378;DHT22;32083;47.360;9.650;2022-09-17T15:35:24;12.50;96.90
46378;DHT22;32083;47.360;9.650;2022-09-17T15:38:00;12.50;96.20
46378;DHT22;32083;47.360;9.650;2022-09-17T15:40:37;12.60;96.80
46378;DHT22;32083;47.360;9.650;2022-09-17T15:43:15;12.70;97.40
46378;DHT22;32083;47.360;9.650;2022-09-17T15:45:41;12.70;96.40
46378;DHT22;32083;47.360;9.650;2022-09-17T15:48:34;12.80;97.80
46378;DHT22;32083;47.360;9.650;2022-09-17T15:51:03;12.80;98.20
46378;DHT22;32083;47.360;9.650;2022-09-17T15:53:34;12.90;98.00
46378;DHT22;32083;47.360;9.650;2022-09-17T16:08:55;12.80;96.50
46378;DHT22;32083;47.360;9.650;2022-09-17T16:11:27;12.80;96.20
46378;DHT22;32083;47.360;9.650;2022-09-17T16:13:55;12.70;96.00
46378;DHT22;32083;47.360;9.650;2022-09-17T16:16:32;12.70;95.90
46378;DHT22;32083;47.360;9.650;2022-09-17T16:18:58;12.70;95.60
46378;DHT22;32083;47.360;9.650;2022-09-17T16:21:24;12.70;95.90
46378;DHT22;32083;47.360;9.650;2022-09-17T16:23:50;12.70;95.80
46378;DHT22;32083;47.360;9.650;2022-09-17T16:26:37;12.70;95.10
46378;DHT22;32083;47.360;9.650;2022-09-17T16:29:14;12.60;95.30
46378;DHT22;32083;47.360;9.650;2022-09-17T16:31:41;12.60;95.30
46378;DHT22;32083;47.360;9.650;2022-09-17T16:34:09;12.50;95.10
46378;DHT22;32083;47.360;9.650;2022-09-17T16:36:35;12.40;95.70
46378;DHT22;32083;47.360;9.650;2022-09-17T16:39:01;12.40;94.90
46378;DHT22;32083;47.360;9.650;2022-09-17T16:41:27;12.50;95.40
46378;DHT22;32083;47.360;9.650;2022-09-17T16:43:53;12.40;95.50
46378;DHT22;32083;47.360;9.650;2022-09-17T16:46:19;12.40;95.60
46378;DHT22;32083;47.360;9.650;2022-09-17T16:48:49;12.50;95.60
46378;DHT22;32083;47.360;9.650;2022-09-17T16:51:15;12.50;95.80
46378;DHT22;32083;47.360;9.650;2022-09-17T16:53:40;12.40;94.90
46378;DHT22;32083;47.360;9.650;2022-09-17T16:56:12;12.40;95.20
46378;DHT22;32083;47.360;9.650;2022-09-17T16:58:38;12.40;95.70
46378;DHT22;32083;47.360;9.650;2022-09-17T17:01:13;12.40;95.40
46378;DHT22;32083;47.360;9.650;2022-09-17T17:03:40;12.40;94.90
46378;DHT22;32083;47.360;9.650;2022-09-17T17:06:16;12.40;95.60
46378;DHT22;32083;47.360;9.650;2022-09-17T17:08:42;12.40;95.80
46378;DHT22;32083;47.360;9.650;2022-09-17T17:11:08;12.30;95.20
46378;DHT22;32083;47.360;9.650;2022-09-17T17:13:34;12.30;95.00
46378;DHT22;32083;47.360;9.650;2022-09-17T17:16:12;12.30;95.60
46378;DHT22;32083;47.360;9.650;2022-09-17T17:18:41;12.20;95.00
46378;DHT22;32083;47.360;9.650;2022-09-17T17:21:09;12.20;94.00
46378;DHT22;32083;47.360;9.650;2022-09-17T17:23:35;12.10;94.70
46378;DHT22;32083;47.360;9.650;2022-09-17T17:26:02;12.00;94.60
46378;DHT22;32083;47.360;9.650;2022-09-17T17:28:33;12.00;94.60
46378;DHT22;32083;47.360;9.650;2022-09-17T17:30:59;12.00;93.60
46378;DHT22;32083;47.360;9.650;2022-09-17T17:33:26;12.00;94.50
46378;DHT22;32083;47.360;9.650;2022-09-17T17:35:52;12.00;94.30
46378;DHT22;32083;47.360;9.650;2022-09-17T17:38:18;11.90;94.90
46378;DHT22;32083;47.360;9.650;2022-09-17T17:40:44;11.90;95.00
46378;DHT22;32083;47.360;9.650;2022-09-17T17:43:11;11.90;95.30
46378;DHT22;32083;47.360;9.650;2022-09-17T17:45:38;11.90;95.10
46378;DHT22;32083;47.360;9.650;2022-09-17T17:48:04;11.80;95.50
46378;DHT22;32083;47.360;9.650;2022-09-17T17:50:31;11.80;95.00
46378;DHT22;32083;47.360;9.650;2022-09-17T17:52:57;11.80;95.70
46378;DHT22;32083;47.360;9.650;2022-09-17T17:55:24;11.70;94.80
46378;DHT22;32083;47.360;9.650;2022-09-17T17:57:57;11.70;94.70
46378;DHT22;32083;47.360;9.650;2022-09-17T18:00:23;11.60;94.90
46378;DHT22;32083;47.360;9.650;2022-09-17T18:02:50;11.60;94.80
46378;DHT22;32083;47.360;9.650;2022-09-17T18:05:16;11.60;95.20
46378;DHT22;32083;47.360;9.650;2022-09-17T18:07:42;11.60;94.60
46378;DHT22;32083;47.360;9.650;2022-09-17T18:10:08;11.60;95.00
46378;DHT22;32083;47.360;9.650;2022-09-17T18:12:34;11.60;95.20
46378;DHT22;32083;47.360;9.650;2022-09-17T18:15:03;11.60;95.50
46378;DHT22;32083;47.360;9.650;2022-09-17T18:17:29;11.70;95.40
46378;DHT22;32083;47.360;9.650;2022-09-17T18:19:56;11.60;95.60
46378;DHT22;32083;47.360;9.650;2022-09-17T18:22:22;11.60;95.40
46378;DHT22;32083;47.360;9.650;2022-09-17T18:24:49;11.60;95.70
46378;DHT22;32083;47.360;9.650;2022-09-17T18:27:15;11.60;95.60
46378;DHT22;32083;47.360;9.650;2022-09-17T18:29:41;11.60;95.60
46378;DHT22;32083;47.360;9.650;2022-09-17T18:32:06;11.60;96.10
46378;DHT22;32083;47.360;9.650;2022-09-17T18:34:32;11.60;95.80
46378;DHT22;32083;47.360;9.650;2022-09-17T18:37:00;11.60;96.10
46378;DHT22;32083;47.360;9.650;2022-09-17T18:39:26;11.60;97.00
46378;DHT22;32083;47.360;9.650;2022-09-17T18:41:52;11.60;97.30
46378;DHT22;32083;47.360;9.650;2022-09-17T18:44:18;11.60;95.90
46378;DHT22;32083;47.360;9.650;2022-09-17T18:46:46;11.60;96.80
46378;DHT22;32083;47.360;9.650;2022-09-17T18:49:14;11.60;96.70
46378;DHT22;32083;47.360;9.650;2022-09-17T18:51:40;11.60;96.10
46378;DHT22;32083;47.360;9.650;2022-09-17T18:54:07;11.60;96.20
46378;DHT22;32083;47.360;9.650;2022-09-17T18:56:33;11.50;96.60
46378;DHT22;32083;47.360;9.650;2022-09-17T18:59:01;11.50;97.10
46378;DHT22;32083;47.360;9.650;2022-09-17T19:01:29;11.60;97.10
46378;DHT22;32083;47.360;9.650;2022-09-17T19:03:55;11.60;97.20
46378;DHT22;32083;47.360;9.650;2022-09-17T19:06:22;11.50;97.20
46378;DHT22;32083;47.360;9.650;2022-09-17T19:08:48;11.50;97.20
46378;DHT22;32083;47.360;9.650;2022-09-17T19:11:15;11.50;97.20
46378;DHT22;32083;47.360;9.650;2022-09-17T19:13:44;11.50;97.30
46378;DHT22;32083;47.360;9.650;2022-09-17T19:16:12;11.50;97.10
46378;DHT22;32083;47.360;9.650;2022-09-17T19:18:39;11.40;96.90
46378;DHT22;32083;47.360;9.650;2022-09-17T19:21:16;11.40;96.90
46378;DHT22;32083;47.360;9.650;2022-09-17T19:23:47;11.30;97.00
46378;DHT22;32083;47.360;9.650;2022-09-17T19:26:22;11.30;97.00
46378;DHT22;32083;47.360;9.650;2022-09-17T19:28:52;11.30;97.00
46378;DHT22;32083;47.360;9.650;2022-09-17T19:31:19;11.40;96.70
46378;DHT22;32083;47.360;9.650;2022-09-17T19:33:45;11.30;97.00
46378;DHT22;32083;47.360;9.650;2022-09-17T19:36:14;11.30;97.00